createdAt,value
2022-08-01T00:01:44.378Z,78.25
2022-08-01T00:04:12.270Z,78.21
2022-08-01T00:06:40.281Z,78.20
2022-08-01T00:09:08.258Z,78.32
2022-08-01T00:11:36.206Z,78.25
2022-08-01T00:14:04.336Z,78.26
2022-08-01T00:16:32.636Z,78.39
2022-08-01T00:19:00.507Z,78.28
2022-08-01T00:21:28.521Z,78.35
2022-08-01T00:23:56.428Z,78.43
2022-08-01T00:26:24.365Z,78.60
2022-08-01T00:28:52.381Z,78.53
2022-08-01T00:31:21.354Z,78.77
2022-08-01T00:33:49.510Z,78.86
2022-08-01T00:36:17.398Z,78.89
2022-08-01T00:38:45.336Z,78.88
2022-08-01T00:41:13.405Z,78.88
2022-08-01T00:43:41.680Z,79.01
2022-08-01T00:46:09.612Z,78.98
2022-08-01T00:48:37.549Z,78.88
2022-08-01T00:51:06.330Z,78.97
2022-08-01T00:53:51.129Z,78.73
2022-08-01T00:56:22.285Z,78.87
2022-08-01T00:58:50.497Z,78.98
2022-08-01T01:01:21.809Z,78.82
2022-08-01T01:03:59.775Z,78.91
2022-08-01T01:06:40.945Z,78.65
2022-08-01T01:09:22.224Z,78.40
2022-08-01T01:11:54.858Z,78.43
2022-08-01T01:14:34.773Z,78.53
2022-08-01T01:17:05.892Z,78.68
2022-08-01T01:19:36.997Z,78.56
2022-08-01T01:22:15.388Z,78.39
2022-08-01T01:25:06.802Z,78.35
2022-08-01T01:27:51.540Z,78.22
2022-08-01T01:30:19.828Z,78.23
2022-08-01T01:32:51.154Z,78.34
2022-08-01T01:35:24.162Z,78.35
2022-08-01T01:37:57.628Z,78.27
2022-08-01T01:40:27.429Z,78.14
2022-08-01T01:42:58.150Z,77.95
2022-08-01T01:45:27.271Z,78.02
2022-08-01T01:47:57.484Z,78.15
2022-08-01T01:50:26.732Z,78.08
2022-08-01T01:52:56.527Z,77.95
2022-08-01T01:55:27.887Z,78.01
2022-08-01T01:57:57.996Z,78.21
2022-08-01T02:00:27.038Z,78.44
2022-08-01T02:02:57.742Z,78.37
2022-08-01T02:05:27.406Z,78.33
2022-08-01T02:07:59.374Z,78.15
2022-08-01T02:10:29.533Z,77.99
2022-08-01T02:13:00.859Z,78.06
2022-08-01T02:15:30.651Z,77.86
2022-08-01T02:17:59.543Z,77.93
2022-08-01T02:20:30.352Z,78.00
2022-08-01T02:23:06.878Z,78.21
2022-08-01T02:25:37.252Z,78.32
2022-08-01T02:28:10.555Z,78.24
2022-08-01T02:30:44.213Z,78.22
2022-08-01T02:33:17.791Z,78.52
2022-08-01T02:36:29.664Z,78.64
2022-08-01T02:38:43.603Z,78.86
2022-08-01T02:41:18.337Z,78.96
2022-08-01T02:43:53.324Z,79.07
2022-08-01T02:46:27.006Z,79.16
2022-08-01T02:48:59.146Z,79.43
2022-08-01T02:51:27.909Z,79.46
2022-08-01T02:53:58.308Z,79.42
2022-08-01T02:56:35.940Z,79.49
2022-08-01T02:59:10.604Z,79.50
2022-08-01T03:01:44.547Z,79.67
2022-08-01T03:04:13.572Z,79.94
2022-08-01T03:06:42.689Z,79.84
2022-08-01T03:09:16.580Z,79.89
2022-08-01T03:11:47.192Z,79.93
2022-08-01T03:14:17.108Z,79.94
2022-08-01T03:16:47.008Z,79.96
2022-08-01T03:19:16.833Z,79.99
2022-08-01T03:21:45.548Z,80.20
2022-08-01T03:24:15.111Z,80.17
2022-08-01T03:26:44.861Z,80.18
2022-08-01T03:29:20.980Z,80.31
2022-08-01T03:31:50.157Z,80.48
2022-08-01T03:34:18.566Z,80.54
2022-08-01T03:36:57.004Z,80.57
2022-08-01T03:39:31.601Z,80.86
2022-08-01T03:42:07.236Z,80.82
2022-08-01T03:44:40.244Z,80.77
2022-08-01T03:47:10.382Z,80.75
2022-08-01T03:49:45.377Z,80.74
2022-08-01T03:52:15.078Z,80.79
2022-08-01T03:54:48.726Z,80.71
2022-08-01T03:57:35.501Z,80.86
2022-08-01T04:00:10.511Z,81.00
2022-08-01T04:02:42.876Z,80.91
2022-08-01T04:05:11.419Z,80.98
2022-08-01T04:07:44.143Z,80.87
2022-08-01T04:10:12.457Z,81.17
2022-08-01T04:12:40.528Z,81.15
2022-08-01T04:15:09.254Z,81.03
2022-08-01T04:17:37.207Z,81.07
2022-08-01T04:20:05.556Z,81.05
2022-08-01T04:22:37.192Z,81.01
2022-08-01T04:25:20.598Z,80.87
2022-08-01T04:27:52.467Z,80.76
2022-08-01T04:30:28.261Z,80.74
2022-08-01T04:33:00.458Z,80.65
2022-08-01T04:36:03.519Z,80.64
2022-08-01T04:38:24.311Z,80.63
2022-08-01T04:40:53.737Z,80.53
2022-08-01T04:43:22.578Z,80.62
2022-08-01T04:45:52.057Z,80.52
2022-08-01T04:48:22.635Z,80.12
2022-08-01T04:50:52.585Z,79.98
2022-08-01T04:53:23.229Z,79.81
2022-08-01T04:55:51.201Z,79.56
2022-08-01T04:58:19.525Z,79.50
2022-08-01T05:00:48.165Z,79.18
2022-08-01T05:03:16.362Z,78.92
2022-08-01T05:05:44.450Z,78.93
2022-08-01T05:08:12.343Z,78.75
2022-08-01T05:10:40.324Z,78.57
2022-08-01T05:13:08.209Z,78.44
2022-08-01T05:15:39.856Z,78.50
2022-08-01T05:18:08.720Z,78.36
2022-08-01T05:20:38.268Z,78.35
2022-08-01T05:23:06.567Z,78.35
2022-08-01T05:25:56.667Z,78.15
2022-08-01T05:28:26.134Z,77.96
2022-08-01T05:30:56.152Z,77.86
2022-08-01T05:33:24.333Z,77.71
2022-08-01T05:35:52.346Z,77.67
2022-08-01T05:38:20.610Z,77.29
2022-08-01T05:40:48.509Z,77.08
2022-08-01T05:43:16.354Z,76.92
2022-08-01T05:45:45.636Z,77.01
2022-08-01T05:48:13.559Z,76.96
2022-08-01T05:50:41.437Z,76.84
2022-08-01T05:53:09.308Z,76.67
2022-08-01T05:55:37.273Z,76.58
2022-08-01T05:58:05.180Z,76.66
2022-08-01T06:00:33.220Z,76.73
2022-08-01T06:03:01.177Z,75.88
2022-08-01T06:05:29.550Z,76.17
2022-08-01T06:07:57.641Z,76.10
2022-08-01T06:10:25.561Z,76.34
2022-08-01T06:12:53.393Z,76.21
2022-08-01T06:15:21.335Z,76.22
2022-08-01T06:17:49.275Z,75.73
2022-08-01T06:20:17.192Z,75.29
2022-08-01T06:22:45.120Z,74.97
2022-08-01T06:25:21.280Z,75.06
2022-08-01T06:27:50.895Z,75.17
2022-08-01T06:30:19.578Z,75.39
2022-08-01T06:32:48.591Z,75.42
2022-08-01T06:35:17.089Z,75.35
2022-08-01T06:37:48.554Z,75.02
2022-08-01T06:40:17.460Z,74.77
2022-08-01T06:42:46.949Z,74.34
2022-08-01T06:45:15.910Z,74.27
2022-08-01T06:47:50.446Z,74.26
2022-08-01T06:50:19.417Z,73.65
2022-08-01T06:52:47.391Z,74.11
2022-08-01T06:55:15.633Z,73.98
2022-08-01T06:57:51.880Z,73.78
2022-08-01T07:00:23.622Z,74.01
2022-08-01T07:02:55.341Z,73.73
2022-08-01T07:05:24.663Z,73.55
2022-08-01T07:07:52.698Z,73.20
2022-08-01T07:10:21.064Z,72.75
2022-08-01T07:12:48.950Z,72.83
2022-08-01T07:15:16.892Z,73.36
2022-08-01T07:17:44.859Z,73.45
2022-08-01T07:20:16.607Z,73.07
2022-08-01T07:22:47.541Z,72.73
2022-08-01T07:25:16.605Z,72.57
2022-08-01T07:27:46.793Z,72.42
2022-08-01T07:30:14.743Z,72.03
2022-08-01T07:32:42.814Z,71.87
2022-08-01T07:35:10.894Z,71.53
2022-08-01T07:37:47.728Z,71.23
2022-08-01T07:40:18.761Z,70.87
2022-08-01T07:42:48.087Z,70.59
2022-08-01T07:45:16.486Z,70.14
2022-08-01T07:47:44.957Z,69.60
2022-08-01T07:50:13.897Z,69.47
2022-08-01T07:52:44.353Z,70.08
2022-08-01T07:55:16.654Z,69.85
2022-08-01T07:57:45.200Z,68.81
2022-08-01T08:00:14.481Z,67.83
2022-08-01T08:02:42.914Z,67.71
2022-08-01T08:05:10.875Z,68.44
2022-08-01T08:07:40.278Z,68.03
2022-08-01T08:10:08.880Z,67.27
2022-08-01T08:12:36.799Z,67.50
2022-08-01T08:15:07.002Z,67.25
2022-08-01T08:17:35.689Z,66.38
2022-08-01T08:20:09.687Z,66.08
2022-08-01T08:22:38.246Z,66.28
2022-08-01T08:25:08.190Z,66.57
2022-08-01T08:27:37.920Z,65.72
2022-08-01T08:30:12.301Z,64.73
2022-08-01T08:32:40.887Z,64.84
2022-08-01T08:35:11.869Z,63.97
2022-08-01T08:37:47.376Z,63.23
2022-08-01T08:40:17.145Z,62.04
2022-08-01T08:42:47.509Z,62.16
2022-08-01T08:45:15.583Z,61.96
2022-08-01T08:47:48.215Z,61.38
2022-08-01T08:50:16.975Z,61.07
2022-08-01T08:52:47.359Z,61.91
2022-08-01T08:55:17.327Z,61.24
2022-08-01T08:57:48.690Z,61.04
2022-08-01T09:00:17.418Z,59.37
2022-08-01T09:02:47.867Z,59.67
2022-08-01T09:05:19.693Z,59.23
2022-08-01T09:07:48.139Z,58.75
2022-08-01T09:10:16.429Z,58.72
2022-08-01T09:13:14.066Z,58.07
2022-08-01T09:15:43.449Z,56.89
2022-08-01T09:18:42.058Z,56.35
2022-08-01T09:21:18.738Z,56.24
2022-08-01T09:23:54.468Z,56.13
2022-08-01T09:26:31.689Z,55.18
2022-08-01T09:29:00.638Z,55.01
2022-08-01T09:31:37.990Z,54.51
2022-08-01T09:34:06.795Z,52.89
2022-08-01T09:36:57.103Z,49.51
2022-08-01T09:39:30.193Z,47.56
2022-08-01T09:42:00.840Z,44.28
2022-08-01T09:44:45.635Z,41.73
2022-08-01T09:47:23.935Z,40.06
2022-08-01T09:49:57.238Z,38.96
2022-08-01T09:52:29.270Z,36.06
2022-08-01T09:55:04.761Z,35.41
2022-08-01T09:57:34.183Z,33.35
2022-08-01T10:00:03.869Z,31.66
2022-08-01T10:02:41.776Z,31.59
2022-08-01T10:05:20.718Z,31.37
2022-08-01T10:08:03.133Z,30.88
2022-08-01T10:10:37.520Z,30.29
2022-08-01T10:13:06.256Z,27.90
2022-08-01T10:15:38.181Z,28.00
2022-08-01T10:18:16.817Z,27.89
2022-08-01T10:20:56.742Z,27.84
2022-08-01T10:23:40.730Z,26.94
2022-08-01T10:26:13.264Z,27.12
2022-08-01T10:28:45.271Z,26.56
2022-08-01T10:31:14.726Z,26.31
2022-08-01T10:33:51.287Z,25.93
2022-08-01T10:36:22.564Z,25.50
2022-08-01T10:38:51.413Z,26.22
2022-08-01T10:41:20.327Z,26.36
2022-08-01T10:43:48.260Z,27.76
2022-08-01T10:46:19.289Z,27.65
2022-08-01T10:49:04.515Z,27.33
2022-08-01T10:51:51.558Z,27.32
2022-08-01T10:54:28.020Z,27.28
2022-08-01T10:57:01.826Z,27.58
2022-08-01T10:59:49.756Z,27.70
2022-08-01T11:02:32.705Z,28.58
2022-08-01T11:05:29.346Z,29.37
2022-08-01T11:08:04.951Z,30.74
2022-08-01T11:10:32.761Z,31.26
2022-08-01T11:13:04.487Z,32.41
2022-08-01T11:15:32.502Z,32.46
2022-08-01T11:18:02.630Z,34.36
2022-08-01T11:20:42.079Z,34.84
2022-08-01T11:23:13.713Z,36.02
2022-08-01T11:26:04.972Z,36.46
2022-08-01T11:28:36.815Z,36.76
2022-08-01T11:31:14.429Z,37.96
2022-08-01T11:33:42.447Z,38.28
2022-08-01T11:36:15.410Z,38.83
2022-08-01T11:38:44.745Z,38.95
2022-08-01T11:41:38.711Z,39.96
2022-08-01T11:44:14.507Z,40.63
2022-08-01T11:46:53.206Z,41.36
2022-08-01T11:49:29.346Z,41.48
2022-08-01T11:52:08.565Z,41.67
2022-08-01T11:54:49.212Z,42.08
2022-08-01T11:57:23.553Z,42.16
2022-08-01T12:00:02.747Z,42.46
2022-08-01T12:02:40.368Z,41.60
2022-08-01T12:05:11.936Z,41.82
2022-08-01T12:07:44.333Z,42.60
2022-08-01T12:10:13.702Z,43.15
2022-08-01T12:12:51.794Z,43.58
2022-08-01T12:15:23.212Z,43.85
2022-08-01T12:17:59.920Z,44.34
2022-08-01T12:20:34.059Z,44.90
2022-08-01T12:23:07.275Z,44.62
2022-08-01T12:25:36.549Z,45.02
2022-08-01T12:28:07.206Z,44.93
2022-08-01T12:30:36.778Z,45.00
2022-08-01T12:33:06.679Z,45.27
2022-08-01T12:35:37.580Z,45.66
2022-08-01T12:38:17.491Z,46.10
2022-08-01T12:40:52.369Z,45.44
2022-08-01T12:43:28.661Z,45.79
2022-08-01T12:46:00.559Z,45.74
2022-08-01T12:48:32.313Z,45.11
2022-08-01T12:51:02.419Z,45.19
2022-08-01T12:53:40.203Z,45.23
2022-08-01T12:56:11.854Z,45.58
2022-08-01T12:58:40.381Z,45.94
2022-08-01T13:01:13.293Z,45.46
2022-08-01T13:03:41.815Z,44.87
2022-08-01T13:06:16.472Z,45.10
2022-08-01T13:08:46.185Z,45.82
2022-08-01T13:11:16.839Z,45.59
2022-08-01T13:13:50.343Z,45.27
2022-08-01T13:16:27.804Z,44.87
2022-08-01T13:19:03.162Z,44.92
2022-08-01T13:21:52.337Z,45.71
2022-08-01T13:24:29.205Z,46.65
2022-08-01T13:27:04.777Z,46.15
2022-08-01T13:29:46.449Z,45.73
2022-08-01T13:32:28.036Z,45.68
2022-08-01T13:35:11.091Z,45.06
2022-08-01T13:37:41.332Z,44.81
2022-08-01T13:40:11.188Z,44.86
2022-08-01T13:42:39.128Z,45.32
2022-08-01T13:45:14.197Z,45.02
2022-08-01T13:48:04.120Z,45.36
2022-08-01T13:50:32.915Z,44.87
2022-08-01T13:53:01.207Z,44.79
2022-08-01T13:55:34.709Z,43.95
2022-08-01T13:58:04.058Z,45.29
2022-08-01T14:00:32.121Z,45.39
2022-08-01T14:03:00.016Z,45.58
2022-08-01T14:05:27.937Z,45.06
2022-08-01T14:07:56.447Z,44.08
2022-08-01T14:10:25.276Z,43.93
2022-08-01T14:12:53.148Z,44.00
2022-08-01T14:15:38.094Z,44.84
2022-08-01T14:18:10.020Z,44.39
2022-08-01T14:20:40.309Z,43.82
2022-08-01T14:23:09.364Z,44.19
2022-08-01T14:26:03.094Z,44.42
2022-08-01T14:28:29.224Z,43.30
2022-08-01T14:30:58.667Z,43.45
2022-08-01T14:33:27.769Z,43.74
2022-08-01T14:36:05.717Z,44.00
2022-08-01T14:38:46.576Z,43.82
2022-08-01T14:41:15.785Z,43.75
2022-08-01T14:43:43.766Z,43.31
2022-08-01T14:46:13.615Z,43.99
2022-08-01T14:48:42.142Z,44.02
2022-08-01T14:51:10.498Z,44.47
2022-08-01T14:53:38.848Z,44.11
2022-08-01T14:56:08.192Z,44.16
2022-08-01T14:58:36.332Z,43.81
2022-08-01T15:01:06.059Z,44.23
2022-08-01T15:03:34.229Z,44.32
2022-08-01T15:06:02.542Z,44.13
2022-08-01T15:08:31.218Z,44.17
2022-08-01T15:10:59.333Z,44.56
2022-08-01T15:13:28.605Z,45.00
2022-08-01T15:16:00.110Z,45.00
2022-08-01T15:18:29.223Z,45.18
2022-08-01T15:20:58.474Z,45.07
2022-08-01T15:23:26.416Z,45.59
2022-08-01T15:25:54.375Z,45.79
2022-08-01T15:28:22.387Z,45.54
2022-08-01T15:30:50.364Z,45.96
2022-08-01T15:33:18.413Z,45.66
2022-08-01T15:35:46.686Z,45.36
2022-08-01T15:38:14.525Z,45.28
2022-08-01T15:40:42.408Z,45.20
2022-08-01T15:43:10.282Z,45.78
2022-08-01T15:45:48.184Z,45.07
2022-08-01T15:48:17.771Z,44.54
2022-08-01T15:50:46.060Z,44.63
2022-08-01T15:53:14.016Z,44.62
2022-08-01T15:55:41.999Z,45.17
2022-08-01T15:58:16.984Z,45.24
2022-08-01T16:00:44.852Z,44.62
2022-08-01T16:03:12.774Z,45.14
2022-08-01T16:05:43.961Z,45.64
2022-08-01T16:08:13.043Z,45.47
2022-08-01T16:10:41.021Z,45.49
2022-08-01T16:13:09.657Z,46.01
2022-08-01T16:15:39.460Z,46.04
2022-08-01T16:18:09.394Z,46.07
2022-08-01T16:20:43.002Z,46.56
2022-08-01T16:23:15.124Z,46.44
2022-08-01T16:25:45.036Z,46.67
2022-08-01T16:28:14.614Z,47.60
2022-08-01T16:30:54.219Z,47.90
2022-08-01T16:33:47.080Z,47.57
2022-08-01T16:36:21.012Z,47.78
2022-08-01T16:38:49.046Z,47.82
2022-08-01T16:41:19.509Z,48.31
2022-08-01T16:43:53.269Z,48.69
2022-08-01T16:46:25.469Z,48.94
2022-08-01T16:48:54.343Z,49.48
2022-08-01T16:51:22.940Z,49.51
2022-08-01T16:53:51.111Z,49.56
2022-08-01T16:56:20.301Z,49.82
2022-08-01T16:58:49.517Z,50.52
2022-08-01T17:02:00.561Z,50.18
2022-08-01T17:04:08.831Z,50.45
2022-08-01T17:06:36.869Z,50.62
2022-08-01T17:09:05.593Z,51.50
2022-08-01T17:11:34.353Z,51.94
2022-08-01T17:14:02.430Z,51.97
2022-08-01T17:16:30.513Z,52.23
2022-08-01T17:18:58.681Z,52.06
2022-08-01T17:21:26.754Z,52.85
2022-08-01T17:23:54.626Z,52.83
2022-08-01T17:26:22.703Z,53.12
2022-08-01T17:28:50.780Z,53.28
2022-08-01T17:31:18.862Z,53.50
2022-08-01T17:33:49.524Z,54.35
2022-08-01T17:36:21.378Z,53.97
2022-08-01T17:38:49.567Z,54.05
2022-08-01T17:41:17.610Z,54.21
2022-08-01T17:43:45.556Z,54.54
2022-08-01T17:46:13.887Z,55.19
2022-08-01T17:48:41.800Z,55.12
2022-08-01T17:51:09.706Z,55.22
2022-08-01T17:53:37.585Z,55.45
2022-08-01T17:56:24.615Z,55.15
2022-08-01T17:58:52.772Z,55.38
2022-08-01T18:01:21.457Z,55.62
2022-08-01T18:03:49.463Z,55.86
2022-08-01T18:06:19.872Z,56.23
2022-08-01T18:08:55.447Z,56.52
2022-08-01T18:11:27.197Z,56.61
2022-08-01T18:13:59.768Z,56.50
2022-08-01T18:16:28.458Z,56.73
2022-08-01T18:18:56.419Z,56.79
2022-08-01T18:21:24.395Z,56.87
2022-08-01T18:23:52.575Z,57.00
2022-08-01T18:26:21.888Z,57.68
2022-08-01T18:28:49.858Z,58.10
2022-08-01T18:31:19.925Z,58.42
2022-08-01T18:33:48.297Z,58.22
2022-08-01T18:36:32.427Z,57.89
2022-08-01T18:39:05.476Z,58.12
2022-08-01T18:41:36.200Z,58.46
2022-08-01T18:44:08.064Z,58.80
2022-08-01T18:46:38.478Z,59.09
2022-08-01T18:49:08.942Z,59.37
2022-08-01T18:51:43.502Z,59.46
2022-08-01T18:54:14.881Z,59.62
2022-08-01T18:56:44.442Z,59.97
2022-08-01T18:59:12.802Z,60.02
2022-08-01T19:01:41.250Z,60.06
2022-08-01T19:04:10.066Z,60.25
2022-08-01T19:06:38.935Z,60.50
2022-08-01T19:09:08.477Z,60.31
2022-08-01T19:11:37.163Z,60.47
2022-08-01T19:14:05.082Z,60.77
2022-08-01T19:16:33.096Z,61.07
2022-08-01T19:19:04.754Z,61.46
2022-08-01T19:21:33.323Z,61.78
2022-08-01T19:24:23.236Z,62.18
2022-08-01T19:26:54.713Z,62.34
2022-08-01T19:29:36.902Z,62.61
2022-08-01T19:32:06.978Z,62.45
2022-08-01T19:34:42.407Z,62.47
2022-08-01T19:37:11.752Z,62.53
2022-08-01T19:39:44.634Z,62.54
2022-08-01T19:42:13.570Z,62.55
2022-08-01T19:44:43.040Z,62.75
2022-08-01T19:47:14.076Z,63.09
2022-08-01T19:49:42.043Z,63.41
2022-08-01T19:52:10.985Z,63.58
2022-08-01T19:54:42.916Z,63.60
2022-08-01T19:57:14.787Z,63.72
2022-08-01T19:59:46.622Z,64.04
2022-08-01T20:02:21.592Z,64.23
2022-08-01T20:04:49.717Z,64.18
2022-08-01T20:07:18.099Z,63.89
2022-08-01T20:09:48.543Z,64.05
2022-08-01T20:12:21.603Z,63.97
2022-08-01T20:14:53.993Z,64.25
2022-08-01T20:17:23.654Z,64.28
2022-08-01T20:19:51.760Z,64.00
2022-08-01T20:22:26.376Z,64.55
2022-08-01T20:24:58.593Z,64.91
2022-08-01T20:27:29.164Z,64.94
2022-08-01T20:30:00.375Z,64.86
2022-08-01T20:32:33.783Z,65.07
2022-08-01T20:35:03.484Z,65.13
2022-08-01T20:38:03.787Z,65.12
2022-08-01T20:40:25.123Z,64.78
2022-08-01T20:42:55.858Z,65.24
2022-08-01T20:45:28.864Z,65.48
2022-08-01T20:47:58.257Z,65.31
2022-08-01T20:50:53.131Z,65.62
2022-08-01T20:53:26.198Z,66.19
2022-08-01T20:56:33.749Z,66.07
2022-08-01T20:59:55.379Z,65.88
2022-08-01T21:02:51.551Z,65.63
2022-08-01T21:05:27.314Z,65.75
2022-08-01T21:08:12.760Z,65.98
2022-08-01T21:10:41.830Z,66.26
2022-08-01T21:13:24.365Z,66.45
2022-08-01T21:16:07.491Z,66.44
2022-08-01T21:19:19.518Z,66.62
2022-08-01T21:21:51.018Z,66.57
2022-08-01T21:24:23.936Z,66.64
2022-08-01T21:26:53.615Z,66.48
2022-08-01T21:29:24.356Z,66.32
2022-08-01T21:32:11.828Z,66.35
2022-08-01T21:34:40.221Z,66.44
2022-08-01T21:37:09.669Z,66.72
2022-08-01T21:39:38.666Z,66.94
2022-08-01T21:42:09.429Z,67.30
2022-08-01T21:44:44.750Z,67.84
2022-08-01T21:47:14.024Z,67.56
2022-08-01T21:49:42.634Z,67.56
2022-08-01T21:52:22.737Z,67.36
2022-08-01T21:54:59.827Z,67.38
2022-08-01T21:57:46.930Z,67.44
2022-08-01T22:01:11.337Z,67.38
2022-08-01T22:04:02.700Z,67.45
2022-08-01T22:06:34.773Z,67.54
2022-08-01T22:09:08.483Z,67.27
2022-08-01T22:11:38.489Z,67.05
2022-08-01T22:14:28.292Z,67.03
2022-08-01T22:16:58.121Z,67.14
2022-08-01T22:19:41.301Z,67.60
2022-08-01T22:22:44.884Z,67.66
2022-08-01T22:25:02.440Z,68.19
2022-08-01T22:28:05.573Z,68.05
2022-08-01T22:30:20.271Z,68.21
2022-08-01T22:33:15.219Z,68.44
2022-08-01T22:35:36.660Z,68.88
2022-08-01T22:38:09.833Z,69.07
2022-08-01T22:40:44.058Z,68.93
2022-08-01T22:43:24.246Z,68.99
2022-08-01T22:45:56.605Z,68.99
2022-08-01T22:49:00.771Z,68.83
2022-08-01T22:51:54.968Z,68.92
2022-08-01T22:54:36.761Z,68.97
2022-08-01T22:57:11.391Z,68.93
2022-08-01T22:59:49.583Z,69.04
2022-08-01T23:02:19.899Z,69.57
2022-08-01T23:04:49.769Z,69.75
2022-08-01T23:07:28.490Z,69.61
2022-08-01T23:09:58.322Z,69.59
2022-08-01T23:12:27.712Z,69.41
2022-08-01T23:14:57.868Z,69.33
2022-08-01T23:17:29.084Z,68.90
2022-08-01T23:20:00.433Z,68.89
2022-08-01T23:22:31.680Z,69.01
2022-08-01T23:25:04.661Z,69.08
2022-08-01T23:28:03.304Z,69.30
2022-08-01T23:30:30.754Z,69.63
2022-08-01T23:32:59.331Z,69.58
2022-08-01T23:35:28.854Z,69.80
2022-08-01T23:38:02.004Z,69.98
2022-08-01T23:40:32.563Z,70.30
2022-08-01T23:43:01.936Z,70.40
2022-08-01T23:46:02.623Z,70.40
2022-08-01T23:48:19.047Z,70.45
2022-08-01T23:50:47.025Z,70.38
2022-08-01T23:53:14.977Z,70.26
2022-08-01T23:55:44.430Z,70.43
2022-08-01T23:58:12.678Z,70.53
